sensor_id;sensor_type;location;lat;lon;timestamp;P1;durP1;ratioP1;P2;durP2;ratioP2
19863;SDS011;10094;48.820;9.226;2023-05-07T00:00:19;6.22;;;4.93;;
19863;SDS011;10094;48.820;9.226;2023-05-07T00:07:02;7.45;;;5.05;;
19863;SDS011;10094;48.820;9.226;2023-05-07T00:13:44;5.63;;;5.13;;
19863;SDS011;10094;48.820;9.226;2023-05-07T00:20:27;9.43;;;5.00;;
19863;SDS011;10094;48.820;9.226;2023-05-07T00:27:10;5.40;;;4.25;;
19863;SDS011;10094;48.820;9.226;2023-05-07T00:33:53;6.97;;;4.95;;
19863;SDS011;10094;48.820;9.226;2023-05-07T00:40:35;5.60;;;4.07;;
19863;SDS011;10094;48.820;9.226;2023-05-07T00:47:17;6.65;;;5.43;;
19863;SDS011;10094;48.820;9.226;2023-05-07T00:54:01;10.00;;;4.60;;
19863;SDS011;10094;48.820;9.226;2023-05-07T01:00:44;8.90;;;4.90;;
19863;SDS011;10094;48.820;9.226;2023-05-07T01:07:27;8.50;;;5.53;;
19863;SDS011;10094;48.820;9.226;2023-05-07T01:14:09;9.80;;;6.22;;
19863;SDS011;10094;48.820;9.226;2023-05-07T01:20:52;8.32;;;5.47;;
19863;SDS011;10094;48.820;9.226;2023-05-07T01:27:37;7.35;;;5.35;;
19863;SDS011;10094;48.820;9.226;2023-05-07T01:34:20;5.63;;;4.45;;
19863;SDS011;10094;48.820;9.226;2023-05-07T01:41:04;8.85;;;4.88;;
19863;SDS011;10094;48.820;9.226;2023-05-07T01:47:46;9.15;;;5.13;;
19863;SDS011;10094;48.820;9.226;2023-05-07T01:54:29;7.20;;;4.65;;
19863;SDS011;10094;48.820;9.226;2023-05-07T02:01:14;6.47;;;4.75;;
19863;SDS011;10094;48.820;9.226;2023-05-07T02:07:57;7.30;;;5.13;;
19863;SDS011;10094;48.820;9.226;2023-05-07T02:14:42;7.15;;;5.28;;
19863;SDS011;10094;48.820;9.226;2023-05-07T02:21:24;5.88;;;5.28;;
19863;SDS011;10094;48.820;9.226;2023-05-07T02:28:07;6.10;;;5.30;;
19863;SDS011;10094;48.820;9.226;2023-05-07T02:35:03;5.40;;;4.45;;
19863;SDS011;10094;48.820;9.226;2023-05-07T02:41:45;4.90;;;4.05;;
19863;SDS011;10094;48.820;9.226;2023-05-07T02:48:28;7.85;;;4.63;;
19863;SDS011;10094;48.820;9.226;2023-05-07T02:55:10;4.97;;;4.47;;
19863;SDS011;10094;48.820;9.226;2023-05-07T03:01:53;7.13;;;4.28;;
19863;SDS011;10094;48.820;9.226;2023-05-07T03:08:36;5.25;;;4.35;;
19863;SDS011;10094;48.820;9.226;2023-05-07T03:15:18;6.57;;;4.30;;
19863;SDS011;10094;48.820;9.226;2023-05-07T03:22:01;4.95;;;4.13;;
19863;SDS011;10094;48.820;9.226;2023-05-07T03:28:44;6.70;;;4.50;;
19863;SDS011;10094;48.820;9.226;2023-05-07T03:35:28;6.03;;;4.63;;
19863;SDS011;10094;48.820;9.226;2023-05-07T03:42:11;5.55;;;4.72;;
19863;SDS011;10094;48.820;9.226;2023-05-07T03:48:53;5.60;;;5.05;;
19863;SDS011;10094;48.820;9.226;2023-05-07T03:55:36;7.78;;;5.20;;
19863;SDS011;10094;48.820;9.226;2023-05-07T04:02:19;4.70;;;4.22;;
19863;SDS011;10094;48.820;9.226;2023-05-07T04:09:02;13.63;;;5.35;;
19863;SDS011;10094;48.820;9.226;2023-05-07T04:15:45;7.55;;;4.97;;
19863;SDS011;10094;48.820;9.226;2023-05-07T04:22:30;5.97;;;5.35;;
19863;SDS011;10094;48.820;9.226;2023-05-07T04:29:13;6.25;;;4.40;;
19863;SDS011;10094;48.820;9.226;2023-05-07T04:35:56;7.60;;;4.18;;
19863;SDS011;10094;48.820;9.226;2023-05-07T04:42:39;6.60;;;4.93;;
19863;SDS011;10094;48.820;9.226;2023-05-07T04:49:24;7.88;;;4.70;;
19863;SDS011;10094;48.820;9.226;2023-05-07T04:56:09;4.93;;;4.50;;
19863;SDS011;10094;48.820;9.226;2023-05-07T05:02:55;5.63;;;4.93;;
19863;SDS011;10094;48.820;9.226;2023-05-07T05:09:39;6.43;;;5.50;;
19863;SDS011;10094;48.820;9.226;2023-05-07T05:16:22;6.00;;;5.30;;
19863;SDS011;10094;48.820;9.226;2023-05-07T05:23:04;21.83;;;9.40;;
19863;SDS011;10094;48.820;9.226;2023-05-07T05:29:48;7.78;;;4.70;;
19863;SDS011;10094;48.820;9.226;2023-05-07T05:36:31;4.63;;;3.80;;
19863;SDS011;10094;48.820;9.226;2023-05-07T05:43:14;4.55;;;4.05;;
19863;SDS011;10094;48.820;9.226;2023-05-07T05:49:57;4.00;;;3.40;;
19863;SDS011;10094;48.820;9.226;2023-05-07T05:56:41;4.47;;;4.07;;
19863;SDS011;10094;48.820;9.226;2023-05-07T06:03:24;4.70;;;4.30;;
19863;SDS011;10094;48.820;9.226;2023-05-07T06:10:07;5.28;;;4.00;;
19863;SDS011;10094;48.820;9.226;2023-05-07T06:16:50;5.47;;;3.90;;
19863;SDS011;10094;48.820;9.226;2023-05-07T06:23:33;4.65;;;4.20;;
19863;SDS011;10094;48.820;9.226;2023-05-07T06:30:16;4.18;;;3.75;;
19863;SDS011;10094;48.820;9.226;2023-05-07T06:36:59;3.88;;;3.58;;
19863;SDS011;10094;48.820;9.226;2023-05-07T06:43:52;5.88;;;3.65;;
19863;SDS011;10094;48.820;9.226;2023-05-07T06:50:44;5.20;;;4.03;;
19863;SDS011;10094;48.820;9.226;2023-05-07T06:57:26;4.20;;;3.80;;
19863;SDS011;10094;48.820;9.226;2023-05-07T07:04:09;4.78;;;3.65;;
19863;SDS011;10094;48.820;9.226;2023-05-07T07:10:53;5.75;;;5.00;;
19863;SDS011;10094;48.820;9.226;2023-05-07T07:17:36;4.20;;;3.80;;
19863;SDS011;10094;48.820;9.226;2023-05-07T07:24:20;5.70;;;4.47;;
19863;SDS011;10094;48.820;9.226;2023-05-07T07:31:07;6.25;;;3.70;;
19863;SDS011;10094;48.820;9.226;2023-05-07T07:37:49;8.45;;;7.65;;
19863;SDS011;10094;48.820;9.226;2023-05-07T07:44:33;5.88;;;5.38;;
19863;SDS011;10094;48.820;9.226;2023-05-07T07:51:21;3.90;;;3.50;;
19863;SDS011;10094;48.820;9.226;2023-05-07T07:58:03;5.25;;;3.60;;
19863;SDS011;10094;48.820;9.226;2023-05-07T08:04:46;5.55;;;3.33;;
19863;SDS011;10094;48.820;9.226;2023-05-07T08:11:28;6.10;;;4.45;;
19863;SDS011;10094;48.820;9.226;2023-05-07T08:18:11;4.57;;;3.20;;
19863;SDS011;10094;48.820;9.226;2023-05-07T08:24:54;5.07;;;3.55;;
19863;SDS011;10094;48.820;9.226;2023-05-07T08:31:36;4.68;;;3.40;;
19863;SDS011;10094;48.820;9.226;2023-05-07T08:38:21;5.97;;;3.15;;
19863;SDS011;10094;48.820;9.226;2023-05-07T08:45:04;5.20;;;3.55;;
19863;SDS011;10094;48.820;9.226;2023-05-07T08:51:51;4.07;;;3.00;;
19863;SDS011;10094;48.820;9.226;2023-05-07T08:58:35;3.60;;;2.85;;
19863;SDS011;10094;48.820;9.226;2023-05-07T09:05:19;3.45;;;3.15;;
19863;SDS011;10094;48.820;9.226;2023-05-07T09:12:02;2.97;;;2.70;;
19863;SDS011;10094;48.820;9.226;2023-05-07T09:18:50;2.90;;;2.60;;
19863;SDS011;10094;48.820;9.226;2023-05-07T09:25:34;3.70;;;2.83;;
19863;SDS011;10094;48.820;9.226;2023-05-07T09:32:24;3.88;;;2.70;;
19863;SDS011;10094;48.820;9.226;2023-05-07T09:39:11;3.30;;;2.92;;
19863;SDS011;10094;48.820;9.226;2023-05-07T09:45:55;3.60;;;2.70;;
19863;SDS011;10094;48.820;9.226;2023-05-07T09:52:40;4.43;;;2.83;;
19863;SDS011;10094;48.820;9.226;2023-05-07T09:59:24;2.78;;;2.30;;
19863;SDS011;10094;48.820;9.226;2023-05-07T10:06:12;5.28;;;3.83;;
19863;SDS011;10094;48.820;9.226;2023-05-07T10:12:56;3.60;;;2.55;;
19863;SDS011;10094;48.820;9.226;2023-05-07T10:19:45;5.53;;;2.33;;
19863;SDS011;10094;48.820;9.226;2023-05-07T10:26:28;2.35;;;2.03;;
19863;SDS011;10094;48.820;9.226;2023-05-07T10:33:13;3.08;;;2.28;;
19863;SDS011;10094;48.820;9.226;2023-05-07T10:39:59;3.63;;;2.20;;
19863;SDS011;10094;48.820;9.226;2023-05-07T10:46:48;2.05;;;1.85;;
19863;SDS011;10094;48.820;9.226;2023-05-07T11:00:58;3.70;;;2.35;;
19863;SDS011;10094;48.820;9.226;2023-05-07T11:07:53;2.58;;;2.25;;
19863;SDS011;10094;48.820;9.226;2023-05-07T11:21:35;4.20;;;2.10;;
19863;SDS011;10094;48.820;9.226;2023-05-07T11:28:28;4.82;;;2.58;;
19863;SDS011;10094;48.820;9.226;2023-05-07T11:35:16;2.45;;;2.08;;
19863;SDS011;10094;48.820;9.226;2023-05-07T11:42:02;3.97;;;2.35;;
19863;SDS011;10094;48.820;9.226;2023-05-07T11:48:44;3.25;;;2.05;;
19863;SDS011;10094;48.820;9.226;2023-05-07T11:55:27;4.32;;;2.08;;
19863;SDS011;10094;48.820;9.226;2023-05-07T12:02:10;3.70;;;2.05;;
19863;SDS011;10094;48.820;9.226;2023-05-07T12:08:55;4.38;;;2.00;;
19863;SDS011;10094;48.820;9.226;2023-05-07T12:15:37;4.60;;;2.17;;
19863;SDS011;10094;48.820;9.226;2023-05-07T12:22:19;4.03;;;2.08;;
19863;SDS011;10094;48.820;9.226;2023-05-07T12:29:02;2.95;;;1.85;;
19863;SDS011;10094;48.820;9.226;2023-05-07T12:35:45;2.95;;;1.90;;
19863;SDS011;10094;48.820;9.226;2023-05-07T12:42:32;2.28;;;2.08;;
19863;SDS011;10094;48.820;9.226;2023-05-07T12:49:16;4.90;;;2.60;;
19863;SDS011;10094;48.820;9.226;2023-05-07T12:56:05;4.90;;;3.00;;
19863;SDS011;10094;48.820;9.226;2023-05-07T13:02:48;8.52;;;2.95;;
19863;SDS011;10094;48.820;9.226;2023-05-07T13:09:31;3.88;;;2.70;;
19863;SDS011;10094;48.820;9.226;2023-05-07T13:16:13;3.33;;;2.15;;
19863;SDS011;10094;48.820;9.226;2023-05-07T13:22:55;3.85;;;2.00;;
19863;SDS011;10094;48.820;9.226;2023-05-07T13:29:38;3.63;;;2.05;;
19863;SDS011;10094;48.820;9.226;2023-05-07T13:36:20;4.60;;;1.80;;
19863;SDS011;10094;48.820;9.226;2023-05-07T13:43:02;4.28;;;2.83;;
19863;SDS011;10094;48.820;9.226;2023-05-07T13:49:47;4.25;;;1.85;;
19863;SDS011;10094;48.820;9.226;2023-05-07T13:56:31;6.40;;;2.20;;
19863;SDS011;10094;48.820;9.226;2023-05-07T14:03:14;6.90;;;2.28;;
19863;SDS011;10094;48.820;9.226;2023-05-07T14:09:56;5.25;;;1.70;;
19863;SDS011;10094;48.820;9.226;2023-05-07T14:16:39;10.38;;;4.28;;
19863;SDS011;10094;48.820;9.226;2023-05-07T14:23:22;3.22;;;2.35;;
19863;SDS011;10094;48.820;9.226;2023-05-07T14:30:08;3.08;;;2.50;;
19863;SDS011;10094;48.820;9.226;2023-05-07T14:36:51;3.85;;;2.72;;
19863;SDS011;10094;48.820;9.226;2023-05-07T14:43:34;5.05;;;2.47;;
19863;SDS011;10094;48.820;9.226;2023-05-07T14:50:16;4.80;;;3.08;;
19863;SDS011;10094;48.820;9.226;2023-05-07T14:56:59;4.53;;;2.38;;
19863;SDS011;10094;48.820;9.226;2023-05-07T15:03:41;5.40;;;2.72;;
19863;SDS011;10094;48.820;9.226;2023-05-07T15:10:24;3.95;;;2.85;;
19863;SDS011;10094;48.820;9.226;2023-05-07T15:17:07;2.60;;;2.40;;
19863;SDS011;10094;48.820;9.226;2023-05-07T15:23:49;5.25;;;4.35;;
19863;SDS011;10094;48.820;9.226;2023-05-07T15:30:32;4.03;;;3.40;;
19863;SDS011;10094;48.820;9.226;2023-05-07T15:37:14;5.20;;;3.10;;
19863;SDS011;10094;48.820;9.226;2023-05-07T15:43:57;3.38;;;2.58;;
19863;SDS011;10094;48.820;9.226;2023-05-07T15:50:39;3.72;;;2.90;;
19863;SDS011;10094;48.820;9.226;2023-05-07T15:57:22;4.35;;;2.58;;
19863;SDS011;10094;48.820;9.226;2023-05-07T16:04:06;4.32;;;2.50;;
19863;SDS011;10094;48.820;9.226;2023-05-07T16:10:49;3.47;;;2.95;;
19863;SDS011;10094;48.820;9.226;2023-05-07T16:17:31;2.83;;;2.10;;
19863;SDS011;10094;48.820;9.226;2023-05-07T16:24:14;2.67;;;2.35;;
19863;SDS011;10094;48.820;9.226;2023-05-07T16:30:57;4.05;;;2.65;;
19863;SDS011;10094;48.820;9.226;2023-05-07T16:37:39;3.92;;;3.22;;
19863;SDS011;10094;48.820;9.226;2023-05-07T16:44:22;3.88;;;3.30;;
19863;SDS011;10094;48.820;9.226;2023-05-07T16:51:05;3.90;;;3.58;;
19863;SDS011;10094;48.820;9.226;2023-05-07T16:57:48;5.68;;;3.15;;
19863;SDS011;10094;48.820;9.226;2023-05-07T17:04:31;4.00;;;3.20;;
19863;SDS011;10094;48.820;9.226;2023-05-07T17:11:13;4.57;;;3.60;;
19863;SDS011;10094;48.820;9.226;2023-05-07T17:17:56;5.60;;;4.07;;
19863;SDS011;10094;48.820;9.226;2023-05-07T17:24:38;3.78;;;3.40;;
19863;SDS011;10094;48.820;9.226;2023-05-07T17:31:20;4.57;;;3.22;;
19863;SDS011;10094;48.820;9.226;2023-05-07T17:38:03;5.30;;;4.07;;
19863;SDS011;10094;48.820;9.226;2023-05-07T17:44:45;3.95;;;3.38;;
19863;SDS011;10094;48.820;9.226;2023-05-07T17:51:27;6.70;;;3.55;;
19863;SDS011;10094;48.820;9.226;2023-05-07T17:58:19;4.75;;;3.63;;
19863;SDS011;10094;48.820;9.226;2023-05-07T18:05:03;5.10;;;3.50;;
19863;SDS011;10094;48.820;9.226;2023-05-07T18:11:46;6.03;;;3.47;;
19863;SDS011;10094;48.820;9.226;2023-05-07T18:18:29;3.92;;;3.50;;
19863;SDS011;10094;48.820;9.226;2023-05-07T18:25:12;5.88;;;3.65;;
19863;SDS011;10094;48.820;9.226;2023-05-07T18:31:54;4.45;;;3.30;;
19863;SDS011;10094;48.820;9.226;2023-05-07T18:38:37;5.82;;;4.18;;
19863;SDS011;10094;48.820;9.226;2023-05-07T18:45:19;5.13;;;4.40;;
19863;SDS011;10094;48.820;9.226;2023-05-07T18:52:02;6.88;;;4.60;;
19863;SDS011;10094;48.820;9.226;2023-05-07T18:58:44;5.32;;;4.15;;
19863;SDS011;10094;48.820;9.226;2023-05-07T19:05:27;4.95;;;4.43;;
19863;SDS011;10094;48.820;9.226;2023-05-07T19:12:09;7.30;;;5.25;;
19863;SDS011;10094;48.820;9.226;2023-05-07T19:18:51;5.47;;;4.95;;
19863;SDS011;10094;48.820;9.226;2023-05-07T19:25:34;5.72;;;5.22;;
19863;SDS011;10094;48.820;9.226;2023-05-07T19:32:16;6.35;;;5.28;;
19863;SDS011;10094;48.820;9.226;2023-05-07T19:39:01;6.47;;;5.35;;
19863;SDS011;10094;48.820;9.226;2023-05-07T19:45:43;5.93;;;5.32;;
19863;SDS011;10094;48.820;9.226;2023-05-07T19:52:26;8.40;;;5.65;;
19863;SDS011;10094;48.820;9.226;2023-05-07T19:59:08;6.53;;;5.90;;
19863;SDS011;10094;48.820;9.226;2023-05-07T20:05:50;7.82;;;6.32;;
19863;SDS011;10094;48.820;9.226;2023-05-07T20:12:33;7.95;;;6.70;;
19863;SDS011;10094;48.820;9.226;2023-05-07T20:19:15;7.93;;;6.90;;
19863;SDS011;10094;48.820;9.226;2023-05-07T20:25:59;7.93;;;6.55;;
19863;SDS011;10094;48.820;9.226;2023-05-07T20:32:41;8.30;;;7.30;;
19863;SDS011;10094;48.820;9.226;2023-05-07T20:39:24;8.68;;;7.47;;
19863;SDS011;10094;48.820;9.226;2023-05-07T20:46:06;8.52;;;7.15;;
19863;SDS011;10094;48.820;9.226;2023-05-07T20:52:49;9.20;;;7.65;;
19863;SDS011;10094;48.820;9.226;2023-05-07T20:59:31;8.00;;;7.20;;
19863;SDS011;10094;48.820;9.226;2023-05-07T21:06:15;8.02;;;7.22;;
19863;SDS011;10094;48.820;9.226;2023-05-07T21:12:57;9.77;;;8.07;;
19863;SDS011;10094;48.820;9.226;2023-05-07T21:19:40;11.65;;;8.55;;
19863;SDS011;10094;48.820;9.226;2023-05-07T21:26:24;8.90;;;7.70;;
19863;SDS011;10094;48.820;9.226;2023-05-07T21:33:06;11.75;;;8.35;;
19863;SDS011;10094;48.820;9.226;2023-05-07T21:39:49;10.25;;;8.32;;
19863;SDS011;10094;48.820;9.226;2023-05-07T21:46:32;9.27;;;8.38;;
19863;SDS011;10094;48.820;9.226;2023-05-07T21:53:14;10.57;;;9.52;;
19863;SDS011;10094;48.820;9.226;2023-05-07T21:59:56;10.95;;;9.55;;
19863;SDS011;10094;48.820;9.226;2023-05-07T22:06:39;9.02;;;8.10;;
19863;SDS011;10094;48.820;9.226;2023-05-07T22:13:21;9.65;;;8.60;;
19863;SDS011;10094;48.820;9.226;2023-05-07T22:20:04;11.10;;;10.00;;
19863;SDS011;10094;48.820;9.226;2023-05-07T22:26:47;13.88;;;9.52;;
19863;SDS011;10094;48.820;9.226;2023-05-07T22:33:30;11.45;;;10.25;;
19863;SDS011;10094;48.820;9.226;2023-05-07T22:40:13;12.45;;;11.15;;
19863;SDS011;10094;48.820;9.226;2023-05-07T22:46:55;14.38;;;12.88;;
19863;SDS011;10094;48.820;9.226;2023-05-07T22:53:38;14.15;;;12.75;;
19863;SDS011;10094;48.820;9.226;2023-05-07T23:00:20;12.27;;;10.98;;
19863;SDS011;10094;48.820;9.226;2023-05-07T23:07:02;11.80;;;10.43;;
19863;SDS011;10094;48.820;9.226;2023-05-07T23:13:45;14.50;;;11.27;;
19863;SDS011;10094;48.820;9.226;2023-05-07T23:20:27;11.90;;;10.70;;
19863;SDS011;10094;48.820;9.226;2023-05-07T23:27:10;12.75;;;11.35;;
19863;SDS011;10094;48.820;9.226;2023-05-07T23:33:52;14.32;;;12.82;;
19863;SDS011;10094;48.820;9.226;2023-05-07T23:40:34;10.55;;;9.05;;
19863;SDS011;10094;48.820;9.226;2023-05-07T23:47:17;10.90;;;8.40;;
19863;SDS011;10094;48.820;9.226;2023-05-07T23:53:59;11.88;;;8.02;;
